ADDS METAR Data INFO
IDs: Format: Raw Decoded Include TAF

Data at: 1958 UTC 15 Dec 2017

KMSL 151953Z AUTO VRB03KT 10SM CLR 04/M05 A3019 RMK AO2 SLP225 T00391050
KMSL 151853Z AUTO 27004KT 10SM CLR 03/M06 A3019 RMK AO2 SLP226 T00281056
KMSL 151753Z AUTO 32007KT 10SM FEW030 03/M06 A3022 RMK AO2 SLP236 T00281056 10033 21028 50003
KMSL 151653Z AUTO 32008KT 10SM SCT031 03/M05 A3024 RMK AO2 SLP243 T00281050
KMSL 151553Z AUTO 32005KT 10SM CLR 02/M05 A3024 RMK AO2 SLP243 T00221050
KMSL 151453Z AUTO 33005KT 10SM FEW038 01/M05 A3021 RMK AO2 SLP233 T00111050 53019
KMSL 151353Z AUTO 32004KT 10SM SCT039 00/M05 A3019 RMK AO2 SLP227 T00001050
KMSL 151253Z AUTO 32004KT 10SM OVC039 M01/M05 A3016 RMK AO2 SLP215 T10061050
KMSL 151153Z AUTO 29003KT 10SM BKN041 M03/M06 A3015 RMK AO2 SLP214 T10281056 10006 21033 53017
KMSL 151053Z AUTO 30003KT 10SM CLR M02/M05 A3012 RMK AO2 SLP202 T10221050
KMSL 150953Z AUTO 00000KT 10SM CLR M03/M06 A3012 RMK AO2 SLP200 T10281056
KMSL 150853Z AUTO 00000KT 10SM CLR M02/M05 A3010 RMK AO2 SLP195 T10221050 56006
KMSL 150753Z AUTO 00000KT 10SM CLR M01/M04 A3011 RMK AO2 SLP197 T10061044
KMSL 150653Z AUTO 00000KT 10SM CLR 00/M05 A3011 RMK AO2 SLP197 T00001050
KMSL 150553Z AUTO 08004KT 10SM CLR 01/M05 A3012 RMK AO2 SLP201 T00061050 10072 20000 401221006 51008
KMSL 150453Z AUTO 08004KT 10SM CLR 01/M04 A3012 RMK AO2 SLP201 T00111044
KMSL 150353Z AUTO 02009KT 10SM CLR 02/M04 A3012 RMK AO2 SLP199 T00221044
KMSL 150253Z AUTO 02006KT 10SM CLR 03/M04 A3010 RMK AO2 SLP192 T00281044 51021
KMSL 150153Z AUTO 01006KT 10SM CLR 04/M03 A3008 RMK AO2 SLP189 T00391033
KMSL 150053Z AUTO 35008KT 10SM CLR 06/M03 A3006 RMK AO2 SLP181 T00561028
KMSL 142353Z AUTO 34006KT 10SM CLR 07/M02 A3003 RMK AO2 SLP172 T00721017 10122 20067 53018
KMSL 142253Z AUTO 33004KT 10SM CLR 09/M02 A3000 RMK AO2 SLP161 T00891017
KMSL 142153Z AUTO 34007KT 10SM CLR 11/M01 A2999 RMK AO2 SLP156 T01111011
KMSL 142053Z AUTO 33004KT 10SM CLR 12/M01 A2998 RMK AO2 SLP152 T01171006 55005
KMSL 141953Z AUTO VRB05KT 10SM CLR 12/M01 A2997 RMK AO2 SLP150 T01171011
KMSL 141853Z AUTO 00000KT 10SM CLR 10/M01 A2998 RMK AO2 SLP152 T01001011
KMSL 141753Z AUTO 00000KT 10SM CLR 10/M01 A3000 RMK AO2 SLP157 T01001006 10106 21006 50006
KMSL 141653Z AUTO 06004KT 10SM CLR 09/M01 A3001 RMK AO2 SLP162 T00941011
KMSL 141553Z AUTO 05005KT 10SM CLR 08/M01 A3001 RMK AO2 SLP164 T00781011
KMSL 141453Z AUTO 05008KT 10SM CLR 07/M01 A2998 RMK AO2 SLP151 T00671011 53017
KMSL 141353Z AUTO 01004KT 10SM CLR 04/M02 A2996 RMK AO2 SLP144 T00441017
KMSL 141253Z AUTO 36003KT 10SM CLR 00/M04 A2994 RMK AO2 SLP141 T00001039
KMSL 141153Z AUTO 00000KT 10SM CLR M01/M04 A2993 RMK AO2 SLP136 T10061039 10083 21006 53019
KMSL 141053Z AUTO 26004KT 10SM CLR 02/M04 A2989 RMK AO2 SLP121 T00171039
KMSL 140953Z AUTO 31003KT 10SM CLR 02/M03 A2987 RMK AO2 SLP115 T00221028
KMSL 140853Z AUTO 25005KT 10SM CLR 05/M04 A2987 RMK AO2 SLP115 T00501039 50006